Weather observations for the past three days for
Roseau, Roseau Municipal Airport/Rudy Billberg Field
Imperial (Metric)
Date Time (cdt) Wind (mph) Vis. (mi.) Weather Sky Cond. Temperature (ºF) Relative Humidity Wind Chill (°F) Heat Index (°F) Pressure Precipitation (in)
Air Dwpt 6 hour altimeter (in) sea level (mb) 1 hr 3 hr 6 hr
Max. Min.
10 17:35 NE 13 9.00 Overcast OVC060 46.9 21.6 37% 42 30.22 0.0
10 17:15 NE 8 10.00 Mostly Cloudy BKN060 47.1 21 36% 44 30.22 0.0
10 16:55 N 8 9.00 Overcast OVC060 46.8 20.7 35% 43 30.21 0.0
10 16:35 N 13 9.00 Overcast OVC060 46.2 20.8 37% 41 30.21 0.0
10 16:15 NE 10 9.00 Overcast OVC060 46.4 21 37% 42 30.21 0.0
10 15:55 Vrbl 5 10.00 Overcast OVC060 46.8 20.1 35% 45 30.21 0.0
10 15:35 N 10 10.00 Overcast OVC055 46.9 20.5 35% 43 30.21 0.0
10 15:15 N 12 10.00 Overcast OVC055 45.5 20.8 38% 40 30.21 0.0
10 14:55 NE 8 10.00 Overcast OVC055 45 21 39% 41 30.22 0.0
10 14:35 N 9 G 18 10.00 Overcast OVC055 47.1 21 36% 43 30.22 0.0
10 14:15 N 14 G 18 10.00 Overcast OVC055 45.1 21 38% 39 30.22 0.0
10 13:55 NE 8 G 17 10.00 Overcast OVC050 43.9 20.1 39% 40 30.22 0.0
10 13:35 N 9 10.00 Overcast OVC055 44.8 21 39% 40 30.22 0.0
10 13:15 N 13 G 21 10.00 Overcast OVC050 44.4 21 39% 39 30.22 0.0
10 12:55 NE 10 G 21 10.00 Overcast OVC050 44.6 20.3 45 29.3 38% 40 30.21 0.0
10 12:35 N 12 G 17 10.00 Overcast OVC050 43.5 19.9 39% 38 30.21 0.0
10 12:15 N 13 G 17 10.00 Overcast OVC050 43.3 20.3 40% 37 30.21 0.0
10 11:55 NW 8 10.00 Mostly Cloudy BKN050 42.6 19.2 39% 38 30.21 0.0
10 11:35 NW 7 9.00 Mostly Cloudy BKN050 42.1 19.2 40% 38 30.21 0.0
10 11:15 N 6 G 20 9.00 Overcast OVC049 41.9 19.8 41% 39 30.21 0.0
10 10:55 NE 13 10.00 Overcast OVC046 43.2 19.9 39% 37 30.2 0.0
10 10:35 N 14 10.00 Overcast OVC045 42.3 20.8 42% 36 30.2 0.0
10 10:15 N 10 9.00 Overcast OVC044 40.5 20.5 45% 35 30.2 0.0
10 09:55 N 12 8.00 Overcast OVC042 40.1 21 46% 34 30.2 0.0
10 09:35 N 13 9.00 Mostly Cloudy BKN041 BKN048 39.7 21 47% 33 30.2 0.0
10 09:15 N 14 9.00 Mostly Cloudy FEW040 BKN048 40.3 22.5 49% 33 30.19 0.0
10 08:55 N 8 8.00 Fair CLR 38.3 25.2 59% 33 30.18 0.0
10 08:35 N 7 9.00 Fair CLR 37.6 25.7 62% 33 30.18 0.0
10 08:15 N 8 9.00 Fair CLR 36.9 26.1 65% 31 30.17 0.0
10 07:55 NW 10 9.00 Fair CLR 35.1 26.1 70% 28 30.17 0.0
10 07:35 NW 10 9.00 Fair CLR 33.8 26.1 73% 26 30.16 0.0
10 07:15 NW 7 10.00 A Few Clouds FEW048 31.8 26.4 80% 26 30.16 0.0
10 06:55 NW 7 9.00 A Few Clouds FEW047 29.3 25.3 32.7 28.2 85% 23 30.14 0.0
10 06:35 NW 8 10.00 A Few Clouds FEW048 28.9 25 85% 22 30.14 0.0
10 06:15 NW 7 10.00 Mostly Cloudy BKN047 29.8 25 82% 24 30.13 0.0
10 05:55 NW 8 10.00 Overcast OVC047 30.9 25.7 81% 24 30.12 0.0
10 05:35 NW 9 10.00 Overcast OVC048 30.4 25.5 82% 23 30.11 0.0
10 05:15 NW 8 10.00 Mostly Cloudy BKN050 29.1 25.2 85% 22 30.11 0.0
10 04:55 NW 10 10.00 A Few Clouds FEW055 28.8 25 86% 20 30.1 0.0
10 04:35 NW 9 10.00 Mostly Cloudy BKN055 29.8 25.3 83% 22 30.1 0.0
10 04:15 NW 9 10.00 Overcast FEW033 OVC055 31.3 26.1 81% 24 30.09 0.0
10 03:55 NW 9 10.00 Overcast FEW032 OVC060 31.3 25.9 80% 24 30.08 0.0
10 03:35 NW 7 10.00 Overcast OVC060 30.6 25.5 82% 25 30.08 0.0
10 03:15 NW 7 10.00 Overcast OVC060 30.4 25.9 83% 24 30.07 0.0
10 02:55 NW 8 10.00 Overcast OVC060 30 25.7 84% 23 30.07 0.0
10 02:35 NW 8 10.00 Overcast OVC060 30.7 26.4 84% 24 30.06 0.0
10 02:15 NW 7 10.00 Mostly Cloudy BKN060 31.1 25.7 80% 25 30.06 0.0
10 01:55 NW 8 10.00 Fair CLR 29.3 24.8 83% 22 30.06 0.0
10 01:35 NW 8 10.00 Fair CLR 30.2 25.2 82% 23 30.05 0.0
10 01:15 NW 9 10.00 Fair CLR 31.8 25.7 78% 25 30.05 0.0
10 00:55 NW 9 10.00 Fair CLR 33.3 25.9 46.4 33.3 74% 26 30.04 0.0
10 00:35 N 12 10.00 Fair CLR 34.5 26.2 72% 27 30.03 0.0
10 00:15 NW 10 10.00 Fair CLR 34.3 28 78% 27 30.03 0.0
09 23:55 NW 7 10.00 Partly Cloudy SCT049 34.5 30 84% 29 30.02 0.0
09 23:35 N 8 10.00 Mostly Cloudy BKN049 36.9 31.3 80% 31 30.02 0.0
09 23:15 N 12 10.00 A Few Clouds FEW029 36.7 31.3 81% 30 30.01 0.0
09 22:55 N 8 10.00 A Few Clouds FEW060 37.4 31.1 78% 32 29.99 0.0
09 22:35 N 10 10.00 Mostly Cloudy BKN055 39.4 31.5 73% 33 29.99 0.0
09 22:15 N 12 10.00 Mostly Cloudy BKN049 BKN100 40.3 31.5 71% 34 29.98 0.0
09 21:55 N 15 10.00 Overcast SCT042 OVC055 42.3 31.6 66% 35 29.97 0.0
09 21:35 N 14 9.00 Overcast BKN041 OVC050 42.6 30.7 63% 36 29.97 0.0
09 21:15 N 13 10.00 Overcast OVC049 43.5 29.8 59% 38 29.96 0.0
09 20:55 NW 8 10.00 Overcast SCT050 BKN060 OVC095 43.7 30 59% 40 29.95 0.0
09 20:35 NW 10 9.00 Overcast FEW060 OVC090 44.2 29.3 56% 39 29.94 0.0
09 20:15 NW 10 10.00 Overcast OVC085 45 28.9 54% 40 29.94 0.0
09 19:55 N 13 9.00 Overcast FEW055 OVC090 45.3 29.5 54% 40 29.93 0.0
09 19:35 NW 12 10.00 Overcast FEW048 SCT070 OVC095 45.7 30 54% 41 29.93 0.0
09 19:15 N 16 5.00 Overcast with Haze FEW048 BKN080 BKN100 OVC130 46.2 29.8 53% 40 29.93 0.0
09 18:35 N 14 8.00 Overcast OVC075 47.5 29.1 49% 42 29.91 0.0
09 18:15 N 15 7.00 Overcast BKN070 OVC090 47.8 28.9 48% 42 29.91 0.0
09 17:55 NW 17 9.00 Mostly Cloudy FEW050 BKN070 BKN085 48.2 28 46% 42 29.91 0.0
09 17:35 N 20 9.00 Overcast SCT050 BKN070 BKN085 OVC130 48 27.3 45% 42 29.9 0.0
09 17:15 N 21 9.00 Overcast and Breezy SCT055 BKN080 OVC130 49.1 27.1 43% 43 29.9 0.0
09 16:55 NW 23 G 26 10.00 Overcast and Breezy FEW055 BKN080 OVC130 50.4 26.6 40% 29.89 0.0
09 16:35 NW 14 9.00 Overcast SCT055 BKN080 OVC120 50 27 41% 45 29.89 0.0
09 16:15 NW 20 10.00 Overcast BKN060 OVC080 50.4 25.9 39% 29.89 0.0
09 15:55 NW 20 G 26 9.00 Overcast BKN060 OVC080 50.2 25.5 38% 29.88 0.0
09 15:35 NW 20 9.00 Overcast OVC070 50.2 25.5 38% 29.88 0.0
09 15:15 NW 21 G 24 9.00 Overcast and Breezy OVC065 50.4 25.3 38% 29.88 0.0
09 14:55 NW 18 G 24 10.00 Overcast OVC060 50.2 25.5 38% 29.87 0.0
09 14:35 NW 21 10.00 Overcast and Breezy OVC065 49.6 24.6 38% 44 29.87 0.0
09 14:15 NW 23 G 29 9.00 Overcast and Breezy OVC055 48.7 25 39% 42 29.87 0.0
09 13:55 NW 16 G 26 10.00 Overcast OVC055 49.5 24.6 38% 44 29.87 0.0
09 13:35 NW 24 10.00 Overcast and Breezy OVC055 49.1 24.6 38% 42 29.87 0.0
09 13:15 NW 16 G 24 10.00 Overcast OVC055 50.5 25.5 38% 29.86 0.0
09 12:55 NW 18 G 29 9.00 Overcast OVC049 47.3 24.8 49.1 35.4 41% 41 29.86 0.0
09 12:35 NW 17 G 25 10.00 Overcast BKN048 OVC060 48 25.3 41% 42 29.86 0.0
09 12:15 NW 18 G 26 10.00 Overcast BKN047 OVC055 46.9 25.2 43% 40 29.86 0.0
09 11:55 NW 21 G 24 10.00 Mostly Cloudy and Breezy BKN047 48 25.7 42% 41 29.85 0.0
09 11:35 NW 14 G 24 10.00 Mostly Cloudy SCT045 BKN050 46.6 25.3 43% 41 29.85 0.0
09 11:15 NW 16 G 28 9.00 Overcast OVC044 45.7 25.5 45% 39 29.85 0.0
09 10:55 N 17 10.00 Mostly Cloudy BKN043 45.9 25.2 44% 39 29.84 0.0
09 10:35 NW 18 G 25 10.00 Overcast OVC042 46 25.3 44% 39 29.84 0.0
09 10:15 N 20 G 25 10.00 Overcast OVC041 44.4 25.3 47% 37 29.83 0.0
09 09:55 N 20 10.00 Overcast OVC042 44.1 26.6 50% 37 29.83 0.0
09 09:35 NW 21 G 28 10.00 Mostly Cloudy and Breezy BKN045 45 25.3 46% 37 29.82 0.0
09 09:15 N 24 G 29 10.00 Mostly Cloudy and Breezy BKN045 44.2 25.2 47% 36 29.82 0.0
09 08:55 NW 18 G 23 10.00 Partly Cloudy SCT046 42.4 26.2 53% 35 29.81 0.0
09 08:35 NW 16 10.00 Fair CLR 42.6 26.8 54% 35 29.81 0.0
09 08:15 NW 15 10.00 Partly Cloudy SCT050 40.8 26.4 57% 34 29.8 0.0
09 07:55 NW 16 10.00 Partly Cloudy SCT050 39.2 26.2 60% 31 29.79 0.0
09 07:35 NW 13 10.00 Partly Cloudy SCT050 37.9 26.6 64% 31 29.78 0.0
09 07:15 NW 10 9.00 Overcast OVC050 36 26.8 69% 29 29.78 0.0
09 06:55 NW 12 10.00 Overcast OVC050 34.9 26.2 43.7 30.2 71% 27 29.77 0.0
09 06:35 NW 10 10.00 Overcast OVC050 34.2 26.1 72% 27 29.76 0.0
09 06:15 NW 8 9.00 Mostly Cloudy BKN050 32.9 25.3 74% 27 29.75 0.0
09 05:55 NW 9 10.00 Fair CLR 30.2 23.5 76% 23 29.75 0.0
09 05:35 NW 9 10.00 Fair CLR 31.5 23.9 74% 24 29.74 0.0
09 05:15 NW 9 10.00 Fair CLR 31.8 23.4 71% 25 29.73 0.0
09 04:55 NW 9 10.00 Fair CLR 32.9 23.2 67% 26 29.72 0.0
09 04:35 NW 10 10.00 Fair CLR 33.6 23 65% 26 29.72 0.0
09 04:15 NW 10 10.00 A Few Clouds FEW070 35.4 23.2 61% 28 29.71 0.0
09 03:55 N 10 10.00 Overcast OVC065 37.4 23.4 57% 31 29.7 0.0
09 03:35 NW 13 10.00 Mostly Cloudy BKN070 37.2 23 56% 30 29.7 0.0
09 03:15 NW 10 10.00 Fair CLR 35.6 22.6 59% 29 29.68 0.0
09 02:55 NW 10 10.00 Partly Cloudy SCT085 37.4 22.6 55% 31 29.68 0.0
09 02:35 N 10 10.00 Partly Cloudy SCT090 37.8 22.8 55% 31 29.68 0.0
09 02:15 N 14 10.00 Mostly Cloudy BKN095 39.4 22.6 51% 32 29.68 0.0
09 01:55 N 14 10.00 Overcast OVC095 41.4 23.5 49% 35 29.68 0.0
09 01:35 N 10 10.00 Overcast OVC095 41.7 24.4 50% 36 29.67 0.0
09 01:15 N 13 10.00 Overcast OVC090 42.6 23.9 48% 37 29.66 0.0
09 00:55 N 14 10.00 Overcast OVC085 43.9 23.7 56.5 43.9 45% 38 29.65 0.0
09 00:35 N 12 10.00 Overcast OVC075 44.4 23.9 44% 39 29.65 0.0
09 00:15 N 14 10.00 Overcast OVC070 45.1 24.1 44% 39 29.64 0.0
08 23:55 N 10 10.00 Overcast OVC065 45.9 24.3 43% 41 29.64 0.0
08 23:35 N 12 10.00 Overcast OVC065 46.6 23.4 40% 42 29.64 0.0
08 23:15 NW 13 10.00 Overcast OVC070 47.1 25.2 42% 42 29.63 0.0
08 22:55 NW 10 10.00 Overcast BKN070 BKN100 OVC110 47.7 24.1 40% 44 29.63 0.0
08 22:35 NW 13 10.00 Overcast FEW065 SCT080 OVC100 48.6 23.4 37% 44 29.63 0.0
08 22:15 NW 15 10.00 Mostly Cloudy FEW075 BKN110 49.3 23.2 36% 44 29.63 0.0
08 21:55 NW 13 10.00 Mostly Cloudy FEW055 BKN075 48.9 24.3 38% 44 29.62 0.0
08 21:35 NW 9 10.00 Overcast OVC080 48.9 23 36% 45 29.61 0.0
08 21:15 NW 9 9.00 Mostly Cloudy BKN085 48.2 25 40% 45 29.59 0.0
08 20:55 NW 9 8.00 A Few Clouds FEW130 49.1 23.5 37% 46 29.58 0.0
08 20:35 NW 9 9.00 Partly Cloudy SCT130 49.8 22.8 35% 47 29.58 0.0
08 20:15 NW 9 9.00 Fair CLR 50.2 22.3 33% 29.58 0.0
08 19:55 NW 14 8.00 Fair CLR 52.7 22.3 30% 29.58 0.0
08 19:35 NW 20 G 28 7.00 Fair CLR 53.4 21.4 29% 29.59 0.0
08 19:15 NW 16 G 26 4.00 Fair with Haze CLR 55.6 20.5 25% 29.59 0.0
08 18:55 NW 20 9.00 A Few Clouds FEW100 57 19.9 59.5 55 24% 29.59 0.0
08 18:35 NW 24 G 29 9.00 A Few Clouds and Breezy FEW100 57.2 19.2 23% 29.59 0.0
08 18:15 NW 23 G 31 9.00 A Few Clouds and Breezy FEW095 57.7 19.8 23% 29.6 0.0
08 17:55 NW 18 9.00 A Few Clouds FEW100 58.3 20.7 23% 29.6 0.0
08 17:35 NW 16 G 24 10.00 Fair CLR 58.5 21.6 24% 29.6 0.0
08 17:15 NW 23 10.00 Fair and Breezy CLR 58.6 22.3 25% 29.6 0.0
08 16:55 NW 18 G 26 9.00 A Few Clouds FEW080 58.6 23 25% 29.6 0.0
08 16:35 NW 16 G 26 9.00 A Few Clouds FEW080 59 22.6 25% 29.6 0.0
08 16:15 NW 18 G 28 10.00 Fair CLR 59 24.1 26% 29.61 0.0
08 15:55 NW 15 G 24 10.00 Fair CLR 58.1 23.5 26% 29.6 0.0
08 15:35 NW 18 G 24 10.00 Fair CLR 58.6 22.1 24% 29.61 0.0
08 15:15 NW 18 G 28 10.00 Fair CLR 58.6 20.5 23% 29.61 0.0
08 14:55 W 18 G 25 10.00 A Few Clouds FEW075 59 24.6 27% 29.6 0.0
08 14:35 W 15 G 24 10.00 A Few Clouds FEW070 58.6 25.5 28% 29.6 0.0
08 14:15 NW 17 G 25 10.00 Partly Cloudy SCT070 58.5 28.2 32% 29.61 0.0
08 13:55 N 10 G 24 10.00 Fair CLR 57.4 27.9 32% 29.6 0.0
08 13:35 NW 13 G 18 10.00 Fair CLR 55.8 27.5 34% 29.61 0.0
08 13:15 N 16 G 29 10.00 Fair CLR 55.6 27.7 34% 29.61 0.0
08 12:55 N 18 G 23 10.00 Fair CLR 55 28 55.8 35.4 36% 29.61 0.0
08 12:35 N 14 10.00 Fair CLR 54.9 28 36% 29.61 0.0
08 12:15 NW 15 G 18 10.00 Fair CLR 53.8 28.2 37% 29.62 0.0
08 11:55 NW 13 10.00 Mostly Cloudy BKN090 51.3 27.7 40% 29.62 0.0
08 11:35 NW 13 10.00 Overcast OVC085 50.5 27.9 42% 29.62 0.0
08 11:15 W 13 10.00 Overcast OVC075 49.6 26.4 41% 45 29.62 0.0
08 10:55 W 13 9.00 Overcast OVC080 50 26.1 39% 46 29.62 0.0
08 10:35 W 13 9.00 Overcast OVC080 50.2 25 37% 29.62 0.0
08 10:15 SW 12 10.00 Overcast SCT055 OVC080 50.2 25 37% 29.62 0.0
08 09:55 SW 10 9.00 Overcast BKN050 BKN065 OVC080 49.5 26.1 40% 46 29.62 0.0
08 09:35 SW 13 10.00 Overcast FEW049 SCT065 BKN080 OVC095 49.3 26.2 41% 45 29.63 0.0
08 09:15 SW 10 10.00 Overcast OVC100 47.7 26.8 44% 44 29.62 0.0
08 08:55 S 8 9.00 Overcast OVC090 44.8 28 52% 41 29.63 0.0
08 08:35 S 9 10.00 Overcast OVC090 43.9 27.7 53% 39 29.64 0.0
08 08:15 S 8 10.00 Overcast BKN090 OVC110 42.8 27.7 55% 39 29.65 0.0
08 07:55 S 8 10.00 Overcast SCT080 OVC100 41.2 26.1 55% 37 29.66 0.0
08 07:35 S 7 10.00 Overcast BKN085 OVC100 40.1 27.1 60% 36 29.66 0.0
08 07:15 S 5 9.00 Overcast FEW075 OVC090 37.2 29.7 74% 34 29.67 0.0
08 06:55 E 5 9.00 Overcast OVC085 34.5 30.2 35.8 29.3 84% 31 29.67 0.0
08 06:35 E 5 9.00 Overcast OVC085 34.3 29.3 82% 31 29.67 0.0
08 06:15 Calm 10.00 Overcast BKN070 OVC090 34.5 27 74% 29.67 0.0
08 05:55 Calm 9.00 Overcast BKN075 OVC090 33.1 28 82% 29.68 0.0
08 05:35 SW 3 10.00 Mostly Cloudy SCT075 BKN090 BKN110 33.8 26.8 75% 29.68 0.0
08 05:15 Calm 10.00 Mostly Cloudy FEW060 BKN075 BKN100 33.6 26.1 74% 29.69 0.0
08 04:55 Calm 10.00 Overcast BKN070 OVC080 34.9 24.4 66% 29.69 0.0
08 04:35 S 5 10.00 Overcast BKN075 OVC090 34.9 23.5 63% 31 29.69 0.0
08 04:15 S 6 10.00 Overcast BKN080 OVC095 34.2 23.4 65% 30 29.69 0.0
08 03:55 SW 6 9.00 Overcast BKN075 OVC095 31.5 23.7 73% 26 29.7 0.0
08 03:35 S 6 9.00 Mostly Cloudy BKN095 31.6 22.8 70% 27 29.7 0.0
08 03:15 SW 6 9.00 Fair CLR 29.7 21.7 72% 24 29.7 0.0
08 02:55 SW 6 9.00 Fair CLR 31.3 21.2 66% 26 29.7 0.0
08 02:35 SW 5 9.00 Fair CLR 32 21.6 65% 28 29.71 0.0
08 02:15 SW 6 9.00 Fair CLR 31.5 21.6 67% 26 29.71 0.0
08 01:55 SW 8 9.00 Fair CLR 32.5 21 63% 26 29.71 0.0
08 01:35 SW 8 9.00 Fair CLR 33.1 21.6 63% 27 29.72 0.0
08 01:15 SW 9 9.00 Fair CLR 33.8 22.1 62% 27 29.72 0.0
08 00:55 SW 8 9.00 Fair CLR 31.8 21.9 51.4 30.4 67% 25 29.73 0.0
08 00:35 SW 8 9.00 Fair CLR 31.6 22.3 68% 25 29.74 0.0
08 00:15 SW 7 9.00 Fair CLR 30.7 22.8 72% 25 29.74 0.0
07 23:55 W 5 9.00 Fair CLR 31.8 22.6 69% 28 29.75 0.0
07 23:35 W 5 8.00 Fair CLR 33.6 21.2 60% 30 29.75 0.0
07 23:15 W 3 8.00 Fair CLR 34.7 20.1 55% 29.75 0.0
07 22:55 SW 5 7.00 Fair CLR 34 19.9 56% 30 29.75 0.0
07 22:35 Calm 9.00 Fair CLR 39.2 18.3 43% 29.75 0.0
07 22:15 Calm 8.00 Fair CLR 39.2 19.9 46% 29.75 0.0
07 21:55 W 3 9.00 Fair CLR 37 20.7 52% 29.75 0.0
07 21:35 W 3 8.00 Fair CLR 39.7 20.1 45% 29.76 0.0
07 21:15 W 3 8.00 Fair CLR 41.4 20.3 43% 29.75 0.0
07 20:55 NW 6 7.00 Fair CLR 43.7 21.6 41% 41 29.75 0.0
07 20:35 NW 8 7.00 Fair CLR 44.6 22.1 41% 41 29.75 0.0
07 20:15 NW 9 8.00 Fair CLR 47.8 21.4 35% 44 29.75 0.0
07 19:55 NW 13 7.00 Fair CLR 50.4 20.3 31% 29.75 0.0
07 19:35 NW 10 7.00 Fair CLR 50.7 20.7 31% 29.75 0.0
07 19:15 W 13 8.00 Fair CLR 51.3 18.9 28% 29.75 0.0
07 18:55 W 9 8.00 Fair CLR 51.3 19.4 52.2 45.3 28% 29.75 0.0
07 18:35 W 10 8.00 Fair CLR 51.4 19.9 29% 29.76 0.0
07 18:15 NW 13 7.00 Fair CLR 51.3 19.6 29% 29.76 0.0
07 17:55 W 12 8.00 A Few Clouds FEW070 51.3 19.8 29% 29.77 0.0
Date Time (cdt) Wind (mph) Vis. (mi.) Weather Sky Cond. Air Dwpt Max. Min. Relative Humidity Wind Chill (°F) Heat Index (°F) altimeter (in) sea level (mb) 1 hr 3 hr 6 hr
6 hour
Temperature (ºF) Pressure Precipitation (in)